createdAt,value
2019-04-14T00:01:52.315Z,2.92
2019-04-14T00:04:25.449Z,3.95
2019-04-14T00:06:54.676Z,3.62
2019-04-14T00:09:25.050Z,3.30
2019-04-14T00:11:54.671Z,2.87
2019-04-14T00:14:23.283Z,4.45
2019-04-14T00:16:51.610Z,2.77
2019-04-14T00:19:19.952Z,3.05
2019-04-14T00:21:48.239Z,3.20
2019-04-14T00:24:16.473Z,2.55
2019-04-14T00:26:44.725Z,3.50
2019-04-14T00:29:13.129Z,2.95
2019-04-14T00:31:41.432Z,3.05
2019-04-14T00:34:11.396Z,2.87
2019-04-14T00:36:44.220Z,2.92
2019-04-14T00:39:20.465Z,2.67
2019-04-14T00:42:02.119Z,2.87
2019-04-14T00:44:41.004Z,2.62
2019-04-14T00:47:20.112Z,2.42
2019-04-14T00:49:48.727Z,3.02
2019-04-14T00:52:17.340Z,2.17
2019-04-14T00:54:45.703Z,2.98
2019-04-14T00:57:14.104Z,2.40
2019-04-14T00:59:42.534Z,2.17
2019-04-14T01:02:10.846Z,2.47
2019-04-14T01:04:39.089Z,3.05
2019-04-14T01:07:08.632Z,2.60
2019-04-14T01:09:37.041Z,2.83
2019-04-14T01:12:06.073Z,3.85
2019-04-14T01:14:34.412Z,3.00
2019-04-14T01:17:02.809Z,2.25
2019-04-14T01:19:31.166Z,2.50
2019-04-14T01:21:59.428Z,2.65
2019-04-14T01:24:27.690Z,2.37
2019-04-14T01:26:57.051Z,2.60
2019-04-14T01:29:25.549Z,2.30
2019-04-14T01:31:53.842Z,1.98
2019-04-14T01:34:22.257Z,2.50
2019-04-14T01:36:51.721Z,2.87
2019-04-14T01:39:20.215Z,2.47
2019-04-14T01:41:48.461Z,2.20
2019-04-14T01:44:17.712Z,2.58
2019-04-14T01:46:46.124Z,3.33
2019-04-14T01:49:14.368Z,3.33
2019-04-14T01:51:50.709Z,2.20
2019-04-14T01:54:27.692Z,2.58
2019-04-14T01:57:15.281Z,2.10
2019-04-14T01:59:43.862Z,2.15
2019-04-14T02:02:14.086Z,3.10
2019-04-14T02:04:44.337Z,2.20
2019-04-14T02:07:12.664Z,2.00
2019-04-14T02:09:40.913Z,2.47
2019-04-14T02:12:10.489Z,2.30
2019-04-14T02:14:38.889Z,3.37
2019-04-14T02:17:07.837Z,2.75
2019-04-14T02:19:37.223Z,2.80
2019-04-14T02:22:05.610Z,2.10
2019-04-14T02:24:35.130Z,2.58
2019-04-14T02:27:03.592Z,2.17
2019-04-14T02:29:32.054Z,2.35
2019-04-14T02:32:37.546Z,2.33
2019-04-14T02:34:57.217Z,2.25
2019-04-14T02:37:26.678Z,2.57
2019-04-14T02:40:04.106Z,2.35
2019-04-14T02:42:40.285Z,2.87
2019-04-14T02:47:53.855Z,2.27
2019-04-14T02:49:56.120Z,2.13
2019-04-14T02:52:30.201Z,2.58
2019-04-14T02:57:30.261Z,2.83
2019-04-14T02:59:58.757Z,2.23
2019-04-14T03:02:30.693Z,3.57
2019-04-14T03:04:56.847Z,2.75
2019-04-14T03:07:34.294Z,2.43
2019-04-14T03:10:10.515Z,2.30
2019-04-14T03:12:36.227Z,2.47
2019-04-14T03:14:58.223Z,2.63
2019-04-14T03:17:29.245Z,2.43
2019-04-14T03:21:11.233Z,2.35
2019-04-14T03:25:09.736Z,2.85
2019-04-14T03:27:54.639Z,2.20
2019-04-14T03:33:18.044Z,2.27
2019-04-14T03:35:51.111Z,3.00
2019-04-14T03:40:27.675Z,2.65
2019-04-14T03:43:03.757Z,2.37
2019-04-14T03:45:35.809Z,2.63
2019-04-14T03:48:18.984Z,2.70
2019-04-14T03:53:02.575Z,3.55
2019-04-14T03:55:16.240Z,3.10
2019-04-14T03:57:31.274Z,3.37
2019-04-14T04:00:00.696Z,2.83
2019-04-14T04:02:29.438Z,2.83
2019-04-14T04:04:57.856Z,2.75
2019-04-14T04:07:26.111Z,3.08
2019-04-14T04:09:56.227Z,2.75
2019-04-14T04:12:24.732Z,3.05
2019-04-14T04:14:53.177Z,2.80
2019-04-14T04:17:38.737Z,2.83
2019-04-14T04:20:13.061Z,3.20
2019-04-14T04:22:58.704Z,3.10
2019-04-14T04:25:29.010Z,3.20
2019-04-14T04:28:08.121Z,3.42
2019-04-14T04:30:38.322Z,3.00
2019-04-14T04:33:17.665Z,2.92
2019-04-14T04:35:47.876Z,5.08
2019-04-14T04:38:35.521Z,3.55
2019-04-14T04:41:03.877Z,7.40
2019-04-14T04:43:32.124Z,4.45
2019-04-14T04:46:00.604Z,3.35
2019-04-14T04:48:28.906Z,6.00
2019-04-14T04:50:58.454Z,7.78
2019-04-14T04:53:26.909Z,4.95
2019-04-14T04:55:55.140Z,8.60
2019-04-14T04:58:24.094Z,7.72
2019-04-14T05:00:54.245Z,5.40
2019-04-14T05:03:23.375Z,6.50
2019-04-14T05:06:28.822Z,7.47
2019-04-14T05:09:01.622Z,12.10
2019-04-14T05:11:31.619Z,8.80
2019-04-14T05:14:02.240Z,7.72
2019-04-14T05:16:30.696Z,6.53
2019-04-14T05:19:12.026Z,7.47
2019-04-14T05:21:29.923Z,7.07
2019-04-14T05:23:58.259Z,8.78
2019-04-14T05:26:26.636Z,6.62
2019-04-14T05:28:54.929Z,9.28
2019-04-14T05:31:26.240Z,8.18
2019-04-14T05:33:53.361Z,5.70
2019-04-14T05:36:21.697Z,4.67
2019-04-14T05:38:50.036Z,6.87
2019-04-14T05:41:18.285Z,6.58
2019-04-14T05:43:52.064Z,7.22
2019-04-14T05:46:16.509Z,12.13
2019-04-14T05:48:44.749Z,8.93
2019-04-14T05:51:13.195Z,10.58
2019-04-14T05:53:41.614Z,8.40
2019-04-14T05:56:10.040Z,3.37
2019-04-14T05:58:38.334Z,8.93
2019-04-14T06:01:07.020Z,8.05
2019-04-14T06:03:36.332Z,11.12
2019-04-14T06:06:04.760Z,6.62
2019-04-14T06:08:32.984Z,5.12
2019-04-14T06:11:01.238Z,8.15
2019-04-14T06:13:29.468Z,6.17
2019-04-14T06:15:57.752Z,9.43
2019-04-14T06:18:25.984Z,4.40
2019-04-14T06:20:54.256Z,8.53
2019-04-14T06:23:22.589Z,8.53
2019-04-14T06:25:50.911Z,8.83
2019-04-14T06:28:19.139Z,4.92
2019-04-14T06:30:58.240Z,8.33
2019-04-14T06:33:28.227Z,8.78
2019-04-14T06:36:14.469Z,6.87
2019-04-14T06:38:44.378Z,6.60
2019-04-14T06:41:14.444Z,15.30
2019-04-14T06:43:48.742Z,7.75
2019-04-14T06:46:12.710Z,6.00
2019-04-14T06:48:40.975Z,6.22
2019-04-14T06:51:09.276Z,5.72
2019-04-14T06:53:37.593Z,8.88
2019-04-14T06:56:05.801Z,7.25
2019-04-14T06:58:34.068Z,8.83
2019-04-14T07:01:02.363Z,5.97
2019-04-14T07:03:30.618Z,6.28
2019-04-14T07:06:00.162Z,7.22
2019-04-14T07:08:29.922Z,6.87
2019-04-14T07:10:58.347Z,5.65
2019-04-14T07:13:26.597Z,6.03
2019-04-14T07:15:54.851Z,6.05
2019-04-14T07:18:23.212Z,5.53
2019-04-14T07:20:51.545Z,5.50
2019-04-14T07:23:19.810Z,9.28
2019-04-14T07:25:48.058Z,7.00
2019-04-14T07:28:16.305Z,7.12
2019-04-14T07:30:54.996Z,5.95
2019-04-14T07:33:37.056Z,6.03
2019-04-14T07:36:24.773Z,7.97
2019-04-14T07:39:03.282Z,8.83
2019-04-14T07:41:35.821Z,11.18
2019-04-14T07:44:15.015Z,5.92
2019-04-14T07:46:45.088Z,6.78
2019-04-14T07:49:23.717Z,8.17
2019-04-14T07:52:11.714Z,6.92
2019-04-14T07:54:50.269Z,5.30
2019-04-14T07:57:31.832Z,6.15
2019-04-14T08:00:01.747Z,6.53
2019-04-14T08:02:31.633Z,5.70
2019-04-14T08:05:07.749Z,7.62
2019-04-14T08:07:35.983Z,6.80
2019-04-14T08:10:06.472Z,6.28
2019-04-14T08:12:35.279Z,5.85
2019-04-14T08:15:05.589Z,9.33
2019-04-14T08:17:33.823Z,6.97
2019-04-14T08:20:02.080Z,7.78
2019-04-14T08:22:30.343Z,8.93
2019-04-14T08:24:58.607Z,9.30
2019-04-14T08:27:26.889Z,25.57
2019-04-14T08:29:55.166Z,9.95
2019-04-14T08:32:23.391Z,9.93
2019-04-14T08:34:51.637Z,8.13
2019-04-14T08:37:19.886Z,9.38
2019-04-14T08:39:48.159Z,10.58
2019-04-14T08:42:24.252Z,8.88
2019-04-14T08:44:54.162Z,10.53
2019-04-14T08:47:24.042Z,10.93
2019-04-14T08:49:53.942Z,9.73
2019-04-14T08:52:24.227Z,8.80
2019-04-14T08:54:54.430Z,10.80
2019-04-14T08:57:27.157Z,14.50
2019-04-14T08:59:57.061Z,8.88
2019-04-14T09:02:42.165Z,8.90
2019-04-14T09:05:27.211Z,7.90
2019-04-14T09:08:05.927Z,6.70
2019-04-14T09:10:35.833Z,6.67
2019-04-14T09:13:04.092Z,8.10
2019-04-14T09:15:32.360Z,8.63
2019-04-14T09:18:00.598Z,8.33
2019-04-14T09:20:28.842Z,8.80
2019-04-14T09:22:57.083Z,7.50
2019-04-14T09:25:25.333Z,7.15
2019-04-14T09:27:53.589Z,12.18
2019-04-14T09:30:21.815Z,6.22
2019-04-14T09:32:50.112Z,7.80
2019-04-14T09:35:18.366Z,6.85
2019-04-14T09:37:46.622Z,7.65
2019-04-14T09:40:14.881Z,6.47
2019-04-14T09:42:43.229Z,8.23
2019-04-14T09:45:11.477Z,8.00
2019-04-14T09:47:39.745Z,10.58
2019-04-14T09:50:08.064Z,10.78
2019-04-14T09:52:36.337Z,7.03
2019-04-14T09:55:06.021Z,8.55
2019-04-14T09:57:34.271Z,6.47
2019-04-14T10:00:02.645Z,9.48
2019-04-14T10:02:30.988Z,7.12
2019-04-14T10:04:59.239Z,6.05
2019-04-14T10:07:27.579Z,8.53
2019-04-14T10:09:55.882Z,9.33
2019-04-14T10:12:24.250Z,7.30
2019-04-14T10:14:52.510Z,7.75
2019-04-14T10:17:20.838Z,6.65
2019-04-14T10:19:49.138Z,7.58
2019-04-14T10:22:17.364Z,10.80
2019-04-14T10:24:45.628Z,7.28
2019-04-14T10:27:13.953Z,8.63
2019-04-14T10:29:42.203Z,8.25
2019-04-14T10:32:10.445Z,9.65
2019-04-14T10:34:38.717Z,9.00
2019-04-14T10:37:06.949Z,8.60
2019-04-14T10:39:35.222Z,6.58
2019-04-14T10:42:03.475Z,10.03
2019-04-14T10:44:31.739Z,18.42
2019-04-14T10:47:00.031Z,9.15
2019-04-14T10:49:28.302Z,9.38
2019-04-14T10:51:56.524Z,12.20
2019-04-14T10:54:24.817Z,12.23
2019-04-14T10:56:53.105Z,12.73
